createdAt,value
2019-02-20T00:00:18.997Z,1012.92
2019-02-20T00:01:18.993Z,1012.88
2019-02-20T00:02:18.977Z,1012.90
2019-02-20T00:03:18.963Z,1012.92
2019-02-20T00:04:18.952Z,1012.91
2019-02-20T00:05:18.950Z,1012.93
2019-02-20T00:06:18.938Z,1012.93
2019-02-20T00:07:18.921Z,1012.94
2019-02-20T00:08:18.917Z,1012.94
2019-02-20T00:09:18.906Z,1012.93
2019-02-20T00:10:18.888Z,1012.88
2019-02-20T00:11:18.881Z,1012.87
2019-02-20T00:12:18.867Z,1012.91
2019-02-20T00:13:18.852Z,1012.89
2019-02-20T00:14:18.842Z,1012.88
2019-02-20T00:15:18.836Z,1012.88
2019-02-20T00:16:18.826Z,1012.88
2019-02-20T00:17:18.817Z,1012.84
2019-02-20T00:18:18.798Z,1012.88
2019-02-20T00:19:20.274Z,1012.88
2019-02-20T00:20:18.776Z,1012.90
2019-02-20T00:21:18.767Z,1012.93
2019-02-20T00:22:18.766Z,1012.90
2019-02-20T00:23:18.757Z,1012.91
2019-02-20T00:24:18.735Z,1012.97
2019-02-20T00:25:18.747Z,1012.96
2019-02-20T00:26:18.712Z,1012.99
2019-02-20T00:27:18.702Z,1013.01
2019-02-20T00:28:18.694Z,1013.00
2019-02-20T00:29:18.705Z,1013.00
2019-02-20T00:30:18.669Z,1012.99
2019-02-20T00:31:18.664Z,1012.99
2019-02-20T00:32:18.648Z,1013.01
2019-02-20T00:33:18.637Z,1012.99
2019-02-20T00:34:18.629Z,1012.98
2019-02-20T00:35:18.635Z,1012.98
2019-02-20T00:36:18.608Z,1012.98
2019-02-20T00:37:18.612Z,1012.97
2019-02-20T00:38:18.583Z,1013.00
2019-02-20T00:39:18.572Z,1013.02
2019-02-20T00:40:18.564Z,1013.04
2019-02-20T00:41:18.560Z,1013.03
2019-02-20T00:42:18.545Z,1013.06
2019-02-20T00:43:18.537Z,1013.04
2019-02-20T00:44:18.522Z,1013.06
2019-02-20T00:45:18.510Z,1013.03
2019-02-20T00:46:18.503Z,1013.03
2019-02-20T00:47:18.535Z,1013.00
2019-02-20T00:48:18.475Z,1013.04
2019-02-20T00:49:18.469Z,1013.05
2019-02-20T00:50:18.462Z,1013.04
2019-02-20T00:51:18.446Z,1013.07
2019-02-20T00:52:18.443Z,1013.07
2019-02-20T00:53:18.422Z,1013.08
2019-02-20T00:54:18.418Z,1013.06
2019-02-20T00:55:18.403Z,1013.09
2019-02-20T00:56:18.410Z,1013.08
2019-02-20T00:57:18.385Z,1013.08
2019-02-20T00:58:18.387Z,1013.08
2019-02-20T00:59:18.358Z,1013.08
2019-02-20T01:00:18.353Z,1013.10
2019-02-20T01:01:18.336Z,1013.09
2019-02-20T01:02:18.322Z,1013.13
2019-02-20T01:03:18.323Z,1013.12
2019-02-20T01:04:18.312Z,1013.11
2019-02-20T01:05:18.326Z,1013.12
2019-02-20T01:06:18.302Z,1013.17
2019-02-20T01:07:18.282Z,1013.15
2019-02-20T01:08:18.259Z,1013.15
2019-02-20T01:09:18.293Z,1013.17
2019-02-20T01:10:18.237Z,1013.16
2019-02-20T01:11:19.343Z,1013.22
2019-02-20T01:12:18.215Z,1013.26
2019-02-20T01:13:18.204Z,1013.29
2019-02-20T01:14:18.220Z,1013.31
2019-02-20T01:15:18.182Z,1013.28
2019-02-20T01:16:18.173Z,1013.27
2019-02-20T01:17:18.165Z,1013.31
2019-02-20T01:18:18.150Z,1013.26
2019-02-20T01:19:18.142Z,1013.30
2019-02-20T01:20:18.132Z,1013.28
2019-02-20T01:21:18.123Z,1013.27
2019-02-20T01:22:18.105Z,1013.24
2019-02-20T01:23:18.099Z,1013.23
2019-02-20T01:24:18.086Z,1013.22
2019-02-20T01:25:18.074Z,1013.23
2019-02-20T01:26:18.075Z,1013.17
2019-02-20T01:27:18.060Z,1013.19
2019-02-20T01:28:18.045Z,1013.16
2019-02-20T01:29:18.040Z,1013.16
2019-02-20T01:30:18.028Z,1013.16
2019-02-20T01:31:18.020Z,1013.16
2019-02-20T01:32:18.020Z,1013.14
2019-02-20T01:33:18.002Z,1013.10
2019-02-20T01:34:17.981Z,1013.14
2019-02-20T01:35:17.975Z,1013.11
2019-02-20T01:36:17.965Z,1013.11
2019-02-20T01:37:17.953Z,1013.09
2019-02-20T01:38:17.941Z,1013.10
2019-02-20T01:39:17.924Z,1013.09
2019-02-20T01:40:17.920Z,1013.10
2019-02-20T01:41:17.902Z,1013.08
2019-02-20T01:42:17.893Z,1013.12
2019-02-20T01:43:17.886Z,1013.12
2019-02-20T01:44:17.872Z,1013.10
2019-02-20T01:45:17.879Z,1013.15
2019-02-20T01:46:17.853Z,1013.12
2019-02-20T01:47:17.837Z,1013.15
2019-02-20T01:48:17.829Z,1013.12
2019-02-20T01:49:17.815Z,1013.12
2019-02-20T01:50:17.810Z,1013.10
2019-02-20T01:51:17.793Z,1013.06
2019-02-20T01:52:17.785Z,1013.07
2019-02-20T01:53:17.771Z,1013.08
2019-02-20T01:54:17.766Z,1013.05
2019-02-20T01:55:17.750Z,1013.03
2019-02-20T01:56:17.746Z,1013.01
2019-02-20T01:57:17.732Z,1013.03
2019-02-20T01:58:17.726Z,1012.99
2019-02-20T01:59:17.709Z,1013.00
2019-02-20T02:00:17.705Z,1013.06
2019-02-20T02:01:17.689Z,1013.10
2019-02-20T02:02:17.690Z,1013.09
2019-02-20T02:03:17.668Z,1013.08
2019-02-20T02:04:17.670Z,1013.05
2019-02-20T02:05:17.649Z,1013.08
2019-02-20T02:06:17.649Z,1013.08
2019-02-20T02:07:17.624Z,1013.07
2019-02-20T02:08:17.617Z,1013.05
2019-02-20T02:09:17.607Z,1013.05
2019-02-20T02:10:17.604Z,1013.09
2019-02-20T02:11:17.577Z,1013.10
2019-02-20T02:12:17.615Z,1013.06
2019-02-20T02:13:17.559Z,1013.09
2019-02-20T02:14:17.548Z,1013.10
2019-02-20T02:15:20.471Z,1013.10
2019-02-20T02:16:17.524Z,1013.10
2019-02-20T02:17:17.524Z,1013.07
2019-02-20T02:18:17.505Z,1013.11
2019-02-20T02:19:17.492Z,1013.08
2019-02-20T02:20:17.487Z,1013.05
2019-02-20T02:21:17.472Z,1013.05
2019-02-20T02:22:17.461Z,1013.04
2019-02-20T02:23:19.856Z,1013.01
2019-02-20T02:24:17.443Z,1013.02
2019-02-20T02:25:17.429Z,1013.03
2019-02-20T02:26:17.428Z,1013.01
2019-02-20T02:27:17.418Z,1012.99
2019-02-20T02:28:17.403Z,1013.06
2019-02-20T02:29:17.398Z,1013.02
2019-02-20T02:30:17.382Z,1013.03
2019-02-20T02:31:17.378Z,1013.03
2019-02-20T02:32:17.358Z,1013.05
2019-02-20T02:33:17.354Z,1013.07
2019-02-20T02:34:17.335Z,1013.03
2019-02-20T02:35:17.323Z,1013.06
2019-02-20T02:36:17.310Z,1013.07
2019-02-20T02:37:17.315Z,1013.11
2019-02-20T02:38:17.295Z,1013.05
2019-02-20T02:39:17.279Z,1013.08
2019-02-20T02:40:17.277Z,1013.05
2019-02-20T02:41:17.260Z,1013.10
2019-02-20T02:42:17.252Z,1013.10
2019-02-20T02:43:17.244Z,1013.09
2019-02-20T02:44:17.233Z,1013.11
2019-02-20T02:45:17.219Z,1013.09
2019-02-20T02:46:17.212Z,1013.09
2019-02-20T02:47:17.197Z,1013.05
2019-02-20T02:48:17.185Z,1013.05
2019-02-20T02:49:17.175Z,1013.08
2019-02-20T02:50:17.184Z,1013.10
2019-02-20T02:51:17.171Z,1013.09
2019-02-20T02:52:17.142Z,1013.08
2019-02-20T02:53:17.135Z,1013.08
2019-02-20T02:54:17.133Z,1013.11
2019-02-20T02:55:17.114Z,1013.10
2019-02-20T02:56:17.104Z,1013.10
2019-02-20T02:57:17.088Z,1013.07
2019-02-20T02:58:17.076Z,1013.10
2019-02-20T02:59:17.075Z,1013.05
2019-02-20T03:00:17.058Z,1013.07
2019-02-20T03:01:17.044Z,1013.07
2019-02-20T03:02:17.043Z,1013.13
2019-02-20T03:03:17.066Z,1013.14
2019-02-20T03:04:17.018Z,1013.12
2019-02-20T03:05:17.017Z,1013.13
2019-02-20T03:06:16.996Z,1013.14
2019-02-20T03:07:16.991Z,1013.13
2019-02-20T03:08:16.988Z,1013.10
2019-02-20T03:09:16.984Z,1013.12
2019-02-20T03:10:16.951Z,1013.15
2019-02-20T03:11:16.943Z,1013.09
2019-02-20T03:12:16.937Z,1013.11
2019-02-20T03:13:16.933Z,1013.12
2019-02-20T03:14:16.918Z,1013.13
2019-02-20T03:15:16.900Z,1013.14
2019-02-20T03:16:16.888Z,1013.17
2019-02-20T03:17:16.885Z,1013.15
2019-02-20T03:18:16.874Z,1013.17
2019-02-20T03:19:16.873Z,1013.22
2019-02-20T03:20:16.872Z,1013.17
2019-02-20T03:21:16.832Z,1013.19
2019-02-20T03:22:16.881Z,1013.20
2019-02-20T03:23:16.815Z,1013.23
2019-02-20T03:24:16.803Z,1013.22
2019-02-20T03:25:16.809Z,1013.25
2019-02-20T03:26:16.784Z,1013.21
2019-02-20T03:27:16.773Z,1013.23
2019-02-20T03:28:16.756Z,1013.24
2019-02-20T03:29:16.748Z,1013.29
2019-02-20T03:30:16.758Z,1013.29
2019-02-20T03:31:16.745Z,1013.29
2019-02-20T03:32:16.738Z,1013.31
2019-02-20T03:33:16.706Z,1013.27
2019-02-20T03:34:16.696Z,1013.30
2019-02-20T03:35:16.689Z,1013.26
2019-02-20T03:36:16.674Z,1013.31
2019-02-20T03:37:16.677Z,1013.32
2019-02-20T03:38:16.654Z,1013.31
2019-02-20T03:39:16.643Z,1013.34
2019-02-20T03:40:16.635Z,1013.32
2019-02-20T03:41:16.631Z,1013.34
2019-02-20T03:42:16.610Z,1013.32
2019-02-20T03:43:16.609Z,1013.35
2019-02-20T03:44:16.589Z,1013.40
2019-02-20T03:45:16.578Z,1013.46
2019-02-20T03:46:16.570Z,1013.42
2019-02-20T03:47:16.561Z,1013.42
2019-02-20T03:48:16.550Z,1013.43
2019-02-20T03:49:16.562Z,1013.41
2019-02-20T03:50:16.533Z,1013.40
2019-02-20T03:51:16.517Z,1013.42
2019-02-20T03:52:16.508Z,1013.39
2019-02-20T03:53:16.493Z,1013.39
2019-02-20T03:54:16.486Z,1013.39
2019-02-20T03:55:16.480Z,1013.42
2019-02-20T03:56:16.463Z,1013.41
2019-02-20T03:57:16.451Z,1013.42
2019-02-20T03:58:16.446Z,1013.42
2019-02-20T03:59:16.439Z,1013.40
2019-02-20T04:00:16.426Z,1013.46
2019-02-20T04:01:16.433Z,1013.45
2019-02-20T04:02:16.471Z,1013.43
2019-02-20T04:03:16.390Z,1013.45
2019-02-20T04:04:16.382Z,1013.46
2019-02-20T04:05:16.366Z,1013.44
2019-02-20T04:06:16.362Z,1013.44
2019-02-20T04:07:16.359Z,1013.46
2019-02-20T04:08:16.335Z,1013.41
2019-02-20T04:09:16.326Z,1013.45
2019-02-20T04:10:16.328Z,1013.43
2019-02-20T04:11:16.312Z,1013.43
2019-02-20T04:12:16.305Z,1013.42
2019-02-20T04:13:16.281Z,1013.39
2019-02-20T04:14:16.272Z,1013.40
2019-02-20T04:15:16.257Z,1013.36
2019-02-20T04:16:16.264Z,1013.38
2019-02-20T04:17:16.239Z,1013.35
2019-02-20T04:18:16.244Z,1013.37
2019-02-20T04:19:16.216Z,1013.39
2019-02-20T04:20:16.205Z,1013.40
2019-02-20T04:21:16.196Z,1013.35
2019-02-20T04:22:16.203Z,1013.40
2019-02-20T04:23:16.180Z,1013.42
2019-02-20T04:24:16.186Z,1013.43
2019-02-20T04:25:16.154Z,1013.47
2019-02-20T04:26:16.140Z,1013.49
2019-02-20T04:27:16.148Z,1013.52
2019-02-20T04:28:16.126Z,1013.51
2019-02-20T04:29:16.117Z,1013.49
2019-02-20T04:30:16.124Z,1013.50
2019-02-20T04:31:16.085Z,1013.51
2019-02-20T04:32:16.075Z,1013.50
2019-02-20T04:33:16.075Z,1013.49
2019-02-20T04:34:16.058Z,1013.46
2019-02-20T04:35:16.057Z,1013.47
2019-02-20T04:36:16.033Z,1013.48
2019-02-20T04:37:16.023Z,1013.51
2019-02-20T04:38:16.011Z,1013.53
2019-02-20T04:39:16.002Z,1013.50
2019-02-20T04:40:16.006Z,1013.56
2019-02-20T04:41:15.991Z,1013.57
2019-02-20T04:42:15.970Z,1013.55
2019-02-20T04:43:15.958Z,1013.57
2019-02-20T04:44:15.953Z,1013.53
2019-02-20T04:45:15.935Z,1013.55
2019-02-20T04:46:15.926Z,1013.54
2019-02-20T04:47:15.921Z,1013.53
2019-02-20T04:48:15.906Z,1013.54
2019-02-20T04:49:15.894Z,1013.54
2019-02-20T04:50:15.884Z,1013.50
2019-02-20T04:51:15.895Z,1013.47
2019-02-20T04:52:15.874Z,1013.41
2019-02-20T04:53:15.858Z,1013.51
2019-02-20T04:54:15.839Z,1013.47
2019-02-20T04:55:15.831Z,1013.50
2019-02-20T04:56:15.829Z,1013.52
2019-02-20T04:57:15.818Z,1013.55
2019-02-20T04:58:15.810Z,1013.55
2019-02-20T04:59:15.792Z,1013.61
2019-02-20T05:00:15.778Z,1013.57
2019-02-20T05:01:15.766Z,1013.61
2019-02-20T05:02:15.755Z,1013.55
2019-02-20T05:03:15.805Z,1013.54
2019-02-20T05:04:15.745Z,1013.57
2019-02-20T05:05:15.743Z,1013.53
2019-02-20T05:06:15.719Z,1013.50
2019-02-20T05:07:15.705Z,1013.52
2019-02-20T05:08:15.694Z,1013.52
2019-02-20T05:09:15.686Z,1013.53
2019-02-20T05:10:15.677Z,1013.56
2019-02-20T05:11:15.671Z,1013.56
2019-02-20T05:12:15.665Z,1013.58
2019-02-20T05:13:15.641Z,1013.57
2019-02-20T05:14:15.626Z,1013.63
2019-02-20T05:15:15.621Z,1013.64
2019-02-20T05:16:15.606Z,1013.63
2019-02-20T05:17:15.592Z,1013.57
2019-02-20T05:18:15.589Z,1013.53
2019-02-20T05:19:15.574Z,1013.54
2019-02-20T05:20:15.567Z,1013.55
2019-02-20T05:21:15.560Z,1013.56
2019-02-20T05:22:15.543Z,1013.52
2019-02-20T05:23:15.531Z,1013.52
2019-02-20T05:24:24.045Z,1013.49
2019-02-20T05:25:16.538Z,1013.52
2019-02-20T05:26:15.506Z,1013.52
2019-02-20T05:27:15.489Z,1013.54
2019-02-20T05:28:15.488Z,1013.56
2019-02-20T05:29:15.465Z,1013.56
2019-02-20T05:30:15.456Z,1013.56
2019-02-20T05:31:16.535Z,1013.57
2019-02-20T05:32:15.440Z,1013.60
2019-02-20T05:33:15.426Z,1013.62
2019-02-20T05:34:15.423Z,1013.59
2019-02-20T05:35:15.406Z,1013.57
2019-02-20T05:36:15.402Z,1013.55
2019-02-20T05:37:15.387Z,1013.56
2019-02-20T05:38:15.379Z,1013.63
2019-02-20T05:39:15.361Z,1013.59
2019-02-20T05:40:15.354Z,1013.60
2019-02-20T05:41:15.337Z,1013.64
2019-02-20T05:42:15.325Z,1013.64
2019-02-20T05:43:15.323Z,1013.74
2019-02-20T05:44:15.307Z,1013.76
2019-02-20T05:45:15.313Z,1013.78
2019-02-20T05:46:15.318Z,1013.74
2019-02-20T05:47:15.275Z,1013.77
2019-02-20T05:48:15.267Z,1013.80
2019-02-20T05:49:15.268Z,1013.80
2019-02-20T05:50:15.244Z,1013.80
2019-02-20T05:51:15.236Z,1013.81
2019-02-20T05:52:15.220Z,1013.81
2019-02-20T05:53:15.217Z,1013.84
2019-02-20T05:54:15.204Z,1013.85
2019-02-20T05:55:15.198Z,1013.85
2019-02-20T05:56:15.176Z,1013.92
2019-02-20T05:57:15.198Z,1013.91
2019-02-20T05:58:15.156Z,1013.87
2019-02-20T05:59:15.157Z,1013.88
2019-02-20T06:00:15.155Z,1013.90
2019-02-20T06:01:15.138Z,1013.88
2019-02-20T06:02:15.117Z,1013.92
2019-02-20T06:03:15.104Z,1013.98
2019-02-20T06:04:15.093Z,1013.94
2019-02-20T06:05:15.085Z,1013.92
2019-02-20T06:06:15.080Z,1013.96
2019-02-20T06:07:15.061Z,1013.89
2019-02-20T06:08:15.050Z,1013.96
2019-02-20T06:09:15.041Z,1013.91
2019-02-20T06:10:15.031Z,1013.97
2019-02-20T06:11:15.674Z,1013.94
2019-02-20T06:12:15.010Z,1013.97
2019-02-20T06:13:15.004Z,1013.97
2019-02-20T06:14:14.988Z,1013.98
2019-02-20T06:15:14.982Z,1014.01
2019-02-20T06:16:14.965Z,1014.03
2019-02-20T06:17:14.955Z,1014.04
2019-02-20T06:18:14.962Z,1014.11
2019-02-20T06:19:14.941Z,1014.08
2019-02-20T06:20:14.928Z,1014.11
2019-02-20T06:21:16.416Z,1014.10
2019-02-20T06:22:14.914Z,1014.12
2019-02-20T06:23:14.897Z,1014.14
2019-02-20T06:24:14.888Z,1014.16
2019-02-20T06:25:14.886Z,1014.15
2019-02-20T06:26:14.872Z,1014.17
2019-02-20T06:27:14.870Z,1014.20
2019-02-20T06:28:14.839Z,1014.19
2019-02-20T06:29:14.837Z,1014.13
2019-02-20T06:30:14.817Z,1014.25
2019-02-20T06:31:14.822Z,1014.25
2019-02-20T06:32:14.803Z,1014.25
2019-02-20T06:33:14.804Z,1014.31
2019-02-20T06:34:14.773Z,1014.30
2019-02-20T06:35:14.776Z,1014.31
2019-02-20T06:36:14.754Z,1014.30
2019-02-20T06:37:14.752Z,1014.31
2019-02-20T06:38:14.737Z,1014.30
2019-02-20T06:39:14.726Z,1014.29
2019-02-20T06:40:14.718Z,1014.30
2019-02-20T06:41:14.717Z,1014.36
2019-02-20T06:42:14.691Z,1014.36
2019-02-20T06:43:14.699Z,1014.38
2019-02-20T06:44:14.672Z,1014.42
2019-02-20T06:45:14.674Z,1014.40
2019-02-20T06:46:14.651Z,1014.42
2019-02-20T06:47:14.657Z,1014.37
2019-02-20T06:48:14.627Z,1014.37
2019-02-20T06:49:14.625Z,1014.33
2019-02-20T06:50:14.615Z,1014.34
2019-02-20T06:51:14.623Z,1014.38
2019-02-20T06:52:14.589Z,1014.32
2019-02-20T06:53:14.572Z,1014.36
2019-02-20T06:54:14.561Z,1014.37
2019-02-20T06:55:14.553Z,1014.35
2019-02-20T06:56:14.545Z,1014.39
2019-02-20T06:57:14.529Z,1014.40
2019-02-20T06:58:14.520Z,1014.41
2019-02-20T06:59:14.507Z,1014.46
2019-02-20T07:00:14.512Z,1014.42
2019-02-20T07:01:14.490Z,1014.46
2019-02-20T07:02:14.486Z,1014.47
2019-02-20T07:03:14.469Z,1014.50
2019-02-20T07:04:14.460Z,1014.51
2019-02-20T07:05:14.443Z,1014.51
2019-02-20T07:06:14.434Z,1014.53
2019-02-20T07:07:14.419Z,1014.61
2019-02-20T07:08:14.426Z,1014.59
2019-02-20T07:09:15.283Z,1014.60
2019-02-20T07:10:14.425Z,1014.62
2019-02-20T07:11:14.384Z,1014.62
2019-02-20T07:12:14.368Z,1014.59
2019-02-20T07:13:14.359Z,1014.60
2019-02-20T07:14:14.348Z,1014.67
2019-02-20T07:15:14.339Z,1014.64
2019-02-20T07:16:14.322Z,1014.69
2019-02-20T07:17:14.316Z,1014.65
2019-02-20T07:18:14.307Z,1014.65
2019-02-20T07:19:14.293Z,1014.65
2019-02-20T07:20:14.288Z,1014.64
2019-02-20T07:21:14.275Z,1014.70
2019-02-20T07:22:14.258Z,1014.70
2019-02-20T07:23:14.290Z,1014.72
2019-02-20T07:24:14.249Z,1014.68
2019-02-20T07:25:14.248Z,1014.72
2019-02-20T07:26:14.224Z,1014.72
2019-02-20T07:27:14.202Z,1014.74
2019-02-20T07:28:14.192Z,1014.73
2019-02-20T07:29:14.183Z,1014.75
2019-02-20T07:30:14.194Z,1014.72
2019-02-20T07:31:14.180Z,1014.73
2019-02-20T07:32:14.149Z,1014.83
2019-02-20T07:33:14.156Z,1014.76
2019-02-20T07:34:14.128Z,1014.77
2019-02-20T07:35:14.119Z,1014.77
2019-02-20T07:36:14.121Z,1014.83
2019-02-20T07:37:14.097Z,1014.83
2019-02-20T07:38:14.093Z,1014.91
2019-02-20T07:39:14.076Z,1014.90
2019-02-20T07:40:14.064Z,1014.90
2019-02-20T07:41:14.053Z,1014.97
2019-02-20T07:42:14.059Z,1014.94
2019-02-20T07:43:14.036Z,1014.93
2019-02-20T07:44:14.036Z,1014.96
2019-02-20T07:45:14.012Z,1014.98
2019-02-20T07:46:14.001Z,1014.99
2019-02-20T07:47:13.997Z,1014.99
2019-02-20T07:48:13.994Z,1015.03
2019-02-20T07:49:13.972Z,1015.08
2019-02-20T07:50:13.958Z,1015.11
2019-02-20T07:51:14.927Z,1015.14
2019-02-20T07:52:13.976Z,1015.14
2019-02-20T07:53:13.929Z,1015.14
2019-02-20T07:54:13.923Z,1015.14
2019-02-20T07:55:13.978Z,1015.10
2019-02-20T07:56:13.894Z,1015.14
2019-02-20T07:57:13.943Z,1015.15
2019-02-20T07:58:13.877Z,1015.13
2019-02-20T07:59:13.874Z,1015.19
2019-02-20T08:00:13.857Z,1015.17
2019-02-20T08:01:13.840Z,1015.21
2019-02-20T08:02:13.830Z,1015.17
2019-02-20T08:03:13.824Z,1015.19
2019-02-20T08:04:13.808Z,1015.18
2019-02-20T08:05:13.804Z,1015.22
2019-02-20T08:06:13.798Z,1015.22
2019-02-20T08:07:13.837Z,1015.23
2019-02-20T08:08:13.769Z,1015.27
2019-02-20T08:09:13.758Z,1015.23
2019-02-20T08:10:13.748Z,1015.28
2019-02-20T08:11:13.739Z,1015.25
2019-02-20T08:12:13.725Z,1015.26
2019-02-20T08:13:13.714Z,1015.23
2019-02-20T08:14:13.713Z,1015.25
2019-02-20T08:15:13.701Z,1015.26
2019-02-20T08:16:13.681Z,1015.26
2019-02-20T08:17:13.668Z,1015.31
2019-02-20T08:18:13.668Z,1015.36
2019-02-20T08:19:13.648Z,1015.33
2019-02-20T08:20:13.638Z,1015.36
2019-02-20T08:21:13.627Z,1015.38
2019-02-20T08:22:13.627Z,1015.38
2019-02-20T08:23:13.617Z,1015.37
2019-02-20T08:24:13.617Z,1015.42
2019-02-20T08:25:22.243Z,1015.45
2019-02-20T08:26:14.572Z,1015.49
2019-02-20T08:27:13.562Z,1015.45
2019-02-20T08:28:13.553Z,1015.49
2019-02-20T08:29:13.544Z,1015.55
2019-02-20T08:30:13.541Z,1015.55
2019-02-20T08:31:13.519Z,1015.57
2019-02-20T08:32:13.512Z,1015.62
2019-02-20T08:33:13.501Z,1015.58
2019-02-20T08:34:13.492Z,1015.63
2019-02-20T08:35:13.484Z,1015.66
2019-02-20T08:36:13.469Z,1015.65
2019-02-20T08:37:13.466Z,1015.63
2019-02-20T08:38:13.443Z,1015.62
2019-02-20T08:39:13.436Z,1015.70
2019-02-20T08:40:13.438Z,1015.69
2019-02-20T08:41:13.427Z,1015.67
2019-02-20T08:42:13.406Z,1015.74
2019-02-20T08:43:13.391Z,1015.73
2019-02-20T08:44:13.382Z,1015.76
2019-02-20T08:45:13.375Z,1015.73
2019-02-20T08:46:13.363Z,1015.75
2019-02-20T08:47:13.362Z,1015.74
2019-02-20T08:48:13.342Z,1015.81
2019-02-20T08:49:13.329Z,1015.81
2019-02-20T08:50:13.317Z,1015.82
2019-02-20T08:51:13.313Z,1015.83
2019-02-20T08:52:13.304Z,1015.82
2019-02-20T08:53:13.285Z,1015.84
2019-02-20T08:54:13.278Z,1015.87
2019-02-20T08:55:13.263Z,1015.91
2019-02-20T08:56:13.254Z,1015.88
2019-02-20T08:57:13.245Z,1015.92
2019-02-20T08:58:13.247Z,1015.92
2019-02-20T08:59:13.230Z,1015.95
2019-02-20T09:00:13.217Z,1015.92
2019-02-20T09:01:13.204Z,1015.95
2019-02-20T09:02:13.192Z,1015.96
2019-02-20T09:03:13.220Z,1015.97
2019-02-20T09:04:13.171Z,1015.95
2019-02-20T09:05:13.200Z,1016.00
2019-02-20T09:06:13.152Z,1015.96
2019-02-20T09:07:13.136Z,1016.01
2019-02-20T09:08:13.136Z,1016.01
2019-02-20T09:09:13.117Z,1016.01
2019-02-20T09:10:13.116Z,1016.00
2019-02-20T09:11:13.095Z,1016.01
2019-02-20T09:12:13.083Z,1016.06
2019-02-20T09:13:13.075Z,1016.08
2019-02-20T09:14:13.067Z,1016.12
2019-02-20T09:15:13.061Z,1016.07
2019-02-20T09:16:13.046Z,1016.10
2019-02-20T09:17:13.040Z,1016.10
2019-02-20T09:18:13.021Z,1016.10
2019-02-20T09:19:13.012Z,1016.11
2019-02-20T09:20:13.007Z,1016.10
2019-02-20T09:21:12.998Z,1016.12
2019-02-20T09:22:13.010Z,1016.12
2019-02-20T09:23:12.970Z,1016.11
2019-02-20T09:24:12.956Z,1016.17
2019-02-20T09:25:19.517Z,1016.10
2019-02-20T09:26:13.937Z,1016.13
2019-02-20T09:27:12.923Z,1016.13
2019-02-20T09:28:12.917Z,1016.16
2019-02-20T09:29:12.910Z,1016.14
2019-02-20T09:30:12.905Z,1016.18
2019-02-20T09:31:12.892Z,1016.14
2019-02-20T09:32:12.878Z,1016.21
2019-02-20T09:33:12.874Z,1016.19
2019-02-20T09:34:12.852Z,1016.17
2019-02-20T09:35:12.838Z,1016.14
2019-02-20T09:36:12.830Z,1016.19
2019-02-20T09:37:12.819Z,1016.13
2019-02-20T09:38:12.809Z,1016.17
2019-02-20T09:39:12.797Z,1016.22
2019-02-20T09:40:12.788Z,1016.24
2019-02-20T09:41:12.780Z,1016.21
2019-02-20T09:42:12.766Z,1016.21
2019-02-20T09:43:12.755Z,1016.16
2019-02-20T09:44:12.748Z,1016.20
2019-02-20T09:45:12.736Z,1016.22
2019-02-20T09:46:12.731Z,1016.21
2019-02-20T09:47:12.718Z,1016.26
2019-02-20T09:48:12.710Z,1016.25
2019-02-20T09:49:12.691Z,1016.24
2019-02-20T09:50:12.700Z,1016.25
2019-02-20T09:51:12.684Z,1016.27
2019-02-20T09:52:12.662Z,1016.28
2019-02-20T09:53:12.656Z,1016.25
2019-02-20T09:54:12.646Z,1016.28
2019-02-20T09:55:12.634Z,1016.29
2019-02-20T09:56:12.619Z,1016.29
2019-02-20T09:57:12.612Z,1016.31
2019-02-20T09:58:12.601Z,1016.31
2019-02-20T09:59:12.597Z,1016.28
2019-02-20T10:00:12.583Z,1016.30
2019-02-20T10:01:12.631Z,1016.33
2019-02-20T10:02:12.563Z,1016.32
2019-02-20T10:03:12.547Z,1016.31
2019-02-20T10:04:12.535Z,1016.37
2019-02-20T10:05:12.523Z,1016.36
2019-02-20T10:06:13.070Z,1016.37
2019-02-20T10:07:12.501Z,1016.41
2019-02-20T10:08:12.489Z,1016.40
2019-02-20T10:09:12.493Z,1016.42
2019-02-20T10:10:12.470Z,1016.41
2019-02-20T10:11:12.468Z,1016.46
2019-02-20T10:12:12.461Z,1016.41
2019-02-20T10:13:12.447Z,1016.47
2019-02-20T10:14:12.430Z,1016.46
2019-02-20T10:15:12.427Z,1016.44
2019-02-20T10:16:12.409Z,1016.44
2019-02-20T10:17:12.402Z,1016.44
2019-02-20T10:18:12.387Z,1016.46
2019-02-20T10:19:12.384Z,1016.43
2019-02-20T10:20:12.366Z,1016.42
2019-02-20T10:21:12.354Z,1016.43
2019-02-20T10:22:12.424Z,1016.45
2019-02-20T10:23:12.350Z,1016.44
2019-02-20T10:24:12.320Z,1016.46
2019-02-20T10:25:12.309Z,1016.55
2019-02-20T10:26:12.302Z,1016.54
2019-02-20T10:27:12.290Z,1016.54
2019-02-20T10:28:12.278Z,1016.57
2019-02-20T10:29:12.268Z,1016.58
2019-02-20T10:30:12.281Z,1016.55
2019-02-20T10:31:12.248Z,1016.50
2019-02-20T10:32:12.243Z,1016.43
2019-02-20T10:33:12.224Z,1016.41
2019-02-20T10:34:12.225Z,1016.36
2019-02-20T10:35:12.204Z,1016.37
2019-02-20T10:36:12.200Z,1016.35
2019-02-20T10:37:12.185Z,1016.38
2019-02-20T10:38:12.174Z,1016.40
2019-02-20T10:39:12.163Z,1016.41
2019-02-20T10:40:12.161Z,1016.46
2019-02-20T10:41:12.159Z,1016.47
2019-02-20T10:42:12.143Z,1016.51
2019-02-20T10:43:12.120Z,1016.52
2019-02-20T10:44:12.119Z,1016.53
2019-02-20T10:45:12.098Z,1016.50
2019-02-20T10:46:12.090Z,1016.51
2019-02-20T10:47:12.078Z,1016.51
2019-02-20T10:48:12.067Z,1016.52
2019-02-20T10:49:12.055Z,1016.54
2019-02-20T10:50:12.045Z,1016.54
2019-02-20T10:51:12.035Z,1016.57
2019-02-20T10:52:12.025Z,1016.57
2019-02-20T10:53:12.012Z,1016.55
2019-02-20T10:54:12.002Z,1016.54
2019-02-20T10:55:11.998Z,1016.61
2019-02-20T10:56:11.991Z,1016.55
2019-02-20T10:57:11.970Z,1016.60
2019-02-20T10:58:11.960Z,1016.62
2019-02-20T10:59:11.958Z,1016.65
2019-02-20T11:00:11.943Z,1016.66
2019-02-20T11:01:11.928Z,1016.67
2019-02-20T11:02:11.932Z,1016.60
2019-02-20T11:03:11.912Z,1016.64
2019-02-20T11:04:11.906Z,1016.64
2019-02-20T11:05:11.892Z,1016.61
2019-02-20T11:06:11.875Z,1016.59
2019-02-20T11:07:11.866Z,1016.60
2019-02-20T11:08:11.853Z,1016.58
2019-02-20T11:09:11.846Z,1016.59
2019-02-20T11:10:11.840Z,1016.55
2019-02-20T11:11:11.822Z,1016.55
2019-02-20T11:12:11.811Z,1016.54
2019-02-20T11:13:11.805Z,1016.53
2019-02-20T11:14:11.789Z,1016.56
2019-02-20T11:15:13.113Z,1016.58
2019-02-20T11:16:11.770Z,1016.57
2019-02-20T11:17:11.762Z,1016.55
2019-02-20T11:18:11.747Z,1016.55
2019-02-20T11:19:11.740Z,1016.54
2019-02-20T11:20:13.608Z,1016.53
2019-02-20T11:21:11.714Z,1016.50
2019-02-20T11:22:11.719Z,1016.51
2019-02-20T11:23:11.693Z,1016.54
2019-02-20T11:24:11.689Z,1016.52
2019-02-20T11:25:11.679Z,1016.51
2019-02-20T11:26:17.937Z,1016.50
2019-02-20T11:27:12.651Z,1016.45
2019-02-20T11:28:11.635Z,1016.52
2019-02-20T11:29:11.625Z,1016.46
2019-02-20T11:30:11.613Z,1016.46
2019-02-20T11:31:11.618Z,1016.45
2019-02-20T11:32:11.594Z,1016.44
2019-02-20T11:33:11.600Z,1016.44
2019-02-20T11:34:11.571Z,1016.46
2019-02-20T11:35:11.560Z,1016.41
2019-02-20T11:36:11.549Z,1016.45
2019-02-20T11:37:11.546Z,1016.45
2019-02-20T11:38:11.533Z,1016.38
2019-02-20T11:39:11.792Z,1016.42
2019-02-20T11:40:11.510Z,1016.46
2019-02-20T11:41:13.431Z,1016.45
2019-02-20T11:42:11.496Z,1016.41
2019-02-20T11:43:11.495Z,1016.42
2019-02-20T11:44:11.474Z,1016.38
2019-02-20T11:45:11.463Z,1016.40
2019-02-20T11:46:11.459Z,1016.40
2019-02-20T11:47:11.435Z,1016.37
2019-02-20T11:48:11.442Z,1016.40
2019-02-20T11:49:11.408Z,1016.35
2019-02-20T11:50:11.400Z,1016.35
2019-02-20T11:51:11.387Z,1016.33
2019-02-20T11:52:11.376Z,1016.36
2019-02-20T11:53:11.365Z,1016.37
2019-02-20T11:54:11.371Z,1016.33
2019-02-20T11:55:11.346Z,1016.34
2019-02-20T11:56:12.311Z,1016.35
2019-02-20T11:57:11.324Z,1016.31
2019-02-20T11:58:11.315Z,1016.34
2019-02-20T11:59:11.303Z,1016.33
2019-02-20T12:00:11.291Z,1016.35
2019-02-20T12:01:11.282Z,1016.32
2019-02-20T12:02:11.272Z,1016.33
2019-02-20T12:03:11.261Z,1016.31
2019-02-20T12:04:11.251Z,1016.32
2019-02-20T12:05:11.247Z,1016.31